Aérodrome :
LOGIN :

S'inscrire | Disclaimer

   EN    FR    IT 

 










Légende :    VFR   VFR Marginal   IFR   IFR Intensif   IFR Très Intensif
Visi : 
Plafond : 
>= 8 km
>= 3000ft
5 à 8 km
1000 à 3000 ft
1500m à 5 km
500 à 1000 ft
800 à 1500m
200 à 500 ft
< 800m
< 200 ft
Symboles :   Orages  Brouillard  Fortes neiges  Fortes précipitations  Vent > 20 kt
SIGMETs :   Divers  Orages  Givrage  Turbulence  Onde Orograph.  Cendres Volcan.







- Altitude de l'aérodrome : 158 ft
- Code IATA : QAR


EHDL - Deelen Airbase

DERNIER METAR :
  • 230725Z AUTO 08005KT 010V140 4700 BR OVC014 M02/M03 Q0998 GRN

METARs EXPIRÉS :
  • 230655Z AUTO 08004KT 030V150 4900 BR OVC015 M02/M03 Q0998 GRN
  • 230625Z AUTO 11004KT 040V170 5000 BR OVC015 M02/M03 Q0998 WHT
  • 230555Z AUTO 11005KT 050V150 4900 BR SCT014 OVC016 M02/M03 Q0998 GRN
  • 230525Z AUTO 11005KT 050V160 5000 BR OVC014 M02/M02 Q0998 GRN
  • 230455Z AUTO 12007KT 060V170 4900 BR FEW007 OVC014 M02/M03 Q0998 GRN

Prévision TAF périmée.
Pas de NOTAMs connus pour ce terrain.



MET'MAP, la Météo Aéronautique d'un coup d'oeil ! - Copyright ORBIFLY Décembre 2007 - Disclaimer

ORBIFLY MET'MAP TEAM :

Programmation & Développement : Alexandra Zaïnal
Conception & Développement : Baudouin d'Aumeries
Co-Programmation & Développement : Marc-Olivier Méhu
Soutien technique & logistique : Manuel Goepfert

Contact : metmap@orbifly.com




SOURCES & CREDITS :

   NOAA